Time;durP1;ratioP1;P1;durP2;ratioP2;P2;SDS_P1;SDS_P2;PMS_P1;PMS_P2;Temp;Humidity;BMP_temperature;BMP_pressure;BME280_temperature;BME280_humidity;BME280_pressure;Samples;Min_cycle;Max_cycle;Signal;HPM_P1;HPM_P2
2022/06/14 00:00:53;;;;;;;3.23;1.57;;;17.90;81.40;;;;;;6307789;22;20143;-85
2022/06/14 00:03:20;;;;;;;3.53;1.70;;;17.80;81.70;;;;;;6280147;22;20144;-88
2022/06/14 00:05:45;;;;;;;6.07;1.80;;;17.70;81.90;;;;;;6280628;22;20598;-89
2022/06/14 00:08:13;;;;;;;9.47;3.10;;;17.70;82.30;;;;;;6280029;22;20178;-90
2022/06/14 00:10:39;;;;;;;5.00;1.47;;;17.60;82.60;;;;;;6307334;22;20143;-88
2022/06/14 00:13:05;;;;;;;7.37;1.73;;;17.60;82.60;;;;;;6280515;22;20159;-89
2022/06/14 00:15:31;;;;;;;6.20;1.53;;;17.60;82.60;;;;;;6280364;22;20142;-89
2022/06/14 00:17:57;;;;;;;5.27;1.50;;;17.50;82.90;;;;;;6280333;22;20504;-89
2022/06/14 00:20:23;;;;;;;3.43;1.13;;;17.40;83.10;;;;;;6280393;22;20593;-89
2022/06/14 00:22:50;;;;;;;4.30;1.40;;;17.40;83.40;;;;;;6280082;22;20201;-89
2022/06/14 00:25:44;;;;;;;4.17;1.40;;;17.40;83.50;;;;;;6280396;22;20148;-89
2022/06/14 00:28:13;;;;;;;3.57;1.30;;;17.40;83.70;;;;;;6275710;22;20544;-89
2022/06/14 00:30:41;;;;;;;2.57;1.30;;;17.40;83.40;;;;;;6280403;22;20156;-88
2022/06/14 00:33:07;;;;;;;3.13;1.60;;;17.30;83.50;;;;;;6279874;22;20142;-89
2022/06/14 00:35:33;;;;;;;3.77;1.57;;;17.30;83.50;;;;;;6281438;22;20674;-88
2022/06/14 00:38:00;;;;;;;4.57;1.53;;;17.30;83.60;;;;;;6282306;22;20619;-89
2022/06/14 00:40:31;;;;;;;3.87;1.60;;;17.20;84.00;;;;;;6281967;22;20151;-89
2022/06/14 00:42:57;;;;;;;5.63;1.40;;;17.30;83.70;;;;;;6282391;22;20225;-88
2022/06/14 00:45:26;;;;;;;4.13;1.47;;;17.20;84.00;;;;;;6282426;22;20526;-88
2022/06/14 00:48:00;;;;;;;4.97;1.53;;;17.20;83.80;;;;;;6281964;22;20770;-88
2022/06/14 00:50:43;;;;;;;3.13;1.40;;;17.30;83.50;;;;;;6282811;22;20152;-88
2022/06/14 00:53:13;;;;;;;6.73;1.67;;;17.20;84.00;;;;;;6282052;22;20456;-88
2022/06/14 00:55:45;;;;;;;4.67;1.77;;;17.30;84.10;;;;;;6309609;22;20134;-89
2022/06/14 00:58:18;;;;;;;7.60;1.90;;;17.10;83.80;;;;;;6282198;22;20158;-89
2022/06/14 01:00:54;;;;;;;3.27;1.63;;;17.00;84.30;;;;;;6282043;22;20226;-88
2022/06/14 01:03:23;;;;;;;4.43;1.33;;;17.20;83.60;;;;;;6282214;22;20153;-89
2022/06/14 01:06:08;;;;;;;2.00;1.03;;;17.30;83.90;;;;;;6282431;22;20174;-88
2022/06/14 01:08:39;;;;;;;5.07;1.40;;;17.10;84.20;;;;;;6309289;22;20661;-88
2022/06/14 01:11:08;;;;;;;5.97;1.43;;;17.00;84.60;;;;;;6282543;22;20570;-88
2022/06/14 01:13:35;;;;;;;4.23;1.47;;;16.80;84.80;;;;;;6282031;22;20262;-88
2022/06/14 01:16:01;;;;;;;6.30;1.50;;;16.90;84.60;;;;;;6309424;22;20146;-88
2022/06/14 01:18:28;;;;;;;8.40;1.50;;;16.90;84.70;;;;;;6309768;22;20158;-89
2022/06/14 01:20:54;;;;;;;2.60;1.20;;;16.90;84.20;;;;;;6282220;22;20538;-88
2022/06/14 01:23:20;;;;;;;2.47;1.30;;;16.80;85.10;;;;;;6281753;22;20142;-88
2022/06/14 01:25:51;;;;;;;3.33;1.40;;;16.90;84.20;;;;;;6309812;22;20162;-89
2022/06/14 01:28:20;;;;;;;2.93;1.53;;;16.80;85.00;;;;;;6282794;22;20157;-86
2022/06/14 01:30:49;;;;;;;5.10;1.23;;;16.70;85.20;;;;;;6281765;22;20158;-88
2022/06/14 01:33:26;;;;;;;5.00;1.30;;;16.70;85.60;;;;;;6281912;22;20186;-88
2022/06/14 01:35:57;;;;;;;5.90;1.73;;;16.70;85.40;;;;;;6281431;22;20161;-87
2022/06/14 01:38:24;;;;;;;3.20;1.40;;;16.70;85.50;;;;;;6282172;22;20149;-90
2022/06/14 01:41:07;;;;;;;3.20;1.23;;;16.70;85.60;;;;;;6281841;22;20604;-90
2022/06/14 01:43:50;;;;;;;3.17;1.50;;;17.00;85.10;;;;;;6282063;22;20211;-91
2022/06/14 01:46:22;;;;;;;3.07;1.20;;;16.70;85.60;;;;;;6281551;22;20157;-91
2022/06/14 01:51:50;;;;;;;5.20;1.40;;;16.80;85.50;;;;;;6309727;22;20153;-91
2022/06/14 01:52:07;;;;;;;4.73;1.27;;;16.60;86.00;;;;;;6309818;22;20154;-91
2022/06/14 01:54:42;;;;;;;7.97;1.60;;;16.50;86.10;;;;;;6282194;22;20649;-90
2022/06/14 01:57:11;;;;;;;4.10;1.80;;;16.40;86.60;;;;;;6281676;22;20143;-91
2022/06/14 01:59:46;;;;;;;4.10;1.50;;;16.50;86.70;;;;;;6281594;22;20151;-91
2022/06/14 02:02:40;;;;;;;4.73;1.50;;;16.50;86.80;;;;;;6281508;22;20232;-91
2022/06/14 02:05:13;;;;;;;6.20;1.40;;;16.40;86.90;;;;;;6280688;22;20154;-91
2022/06/14 02:08:00;;;;;;;4.77;1.63;;;16.30;86.90;;;;;;6281825;22;20146;-91
2022/06/14 02:10:38;;;;;;;4.20;1.60;;;16.20;87.90;;;;;;6308982;22;20134;-91
2022/06/14 02:13:10;;;;;;;4.93;1.53;;;16.20;87.90;;;;;;6309179;22;20129;-89
2022/06/14 02:15:45;;;;;;;3.77;1.40;;;16.10;88.50;;;;;;6281669;22;20165;-91
2022/06/14 02:18:14;;;;;;;3.23;1.03;;;16.10;89.30;;;;;;6309598;22;20149;-92
2022/06/14 02:20:52;;;;;;;3.23;1.43;;;16.30;88.80;;;;;;6308269;22;20150;-85
2022/06/14 02:23:20;;;;;;;3.80;1.23;;;16.30;88.60;;;;;;6281702;22;20492;-90
2022/06/14 02:25:52;;;;;;;5.37;1.40;;;16.00;89.10;;;;;;6281367;22;20138;-90
2022/06/14 02:28:29;;;;;;;2.97;1.67;;;15.90;90.00;;;;;;6281644;22;20207;-91
2022/06/14 02:30:59;;;;;;;4.33;1.37;;;16.00;90.20;;;;;;6282005;22;20154;-91
2022/06/14 02:33:34;;;;;;;4.20;1.60;;;15.90;90.40;;;;;;6308420;22;20226;-90
2022/06/14 02:36:09;;;;;;;3.10;1.20;;;15.80;90.60;;;;;;6308680;22;20655;-88
2022/06/14 02:38:59;;;;;;;4.73;1.50;;;15.80;90.50;;;;;;6281825;22;20235;-90
2022/06/14 02:41:32;;;;;;;4.87;1.60;;;15.80;90.70;;;;;;6281603;22;20228;-91
2022/06/14 02:44:09;;;;;;;4.83;1.70;;;15.70;90.90;;;;;;6308816;22;20134;-91
2022/06/14 02:47:13;;;;;;;2.93;1.20;;;15.70;91.10;;;;;;6281364;22;20152;-89
2022/06/14 02:49:46;;;;;;;3.27;1.40;;;15.60;91.30;;;;;;6153193;23;20649;-90
2022/06/14 02:52:16;;;;;;;6.27;2.27;;;15.60;91.40;;;;;;6262987;22;20164;-90
2022/06/14 02:54:52;;;;;;;5.00;1.80;;;15.60;91.40;;;;;;6281235;22;20178;-90
2022/06/14 02:57:37;;;;;;;3.10;1.53;;;15.60;91.40;;;;;;6307940;22;20134;-91
2022/06/14 03:00:47;;;;;;;6.67;1.70;;;15.50;91.60;;;;;;6281389;22;20230;-91
2022/06/14 03:03:38;;;;;;;6.67;1.50;;;15.60;91.90;;;;;;6308412;22;20158;-91
2022/06/14 03:06:32;;;;;;;4.60;1.43;;;15.60;91.70;;;;;;6283598;22;20141;-91
2022/06/14 03:09:07;;;;;;;4.53;1.50;;;15.50;91.90;;;;;;6284660;22;20146;-92
2022/06/14 03:11:48;;;;;;;5.60;1.47;;;15.40;92.10;;;;;;6283186;22;20271;-91
2022/06/14 03:14:19;;;;;;;4.53;1.40;;;15.30;92.60;;;;;;6308936;22;20306;-88
2022/06/14 03:17:22;;;;;;;6.77;1.67;;;15.30;92.80;;;;;;6280858;22;20171;-91
2022/06/14 03:20:08;;;;;;;2.60;1.43;;;15.40;92.60;;;;;;6281033;22;20157;-89
2022/06/14 03:22:57;;;;;;;5.33;1.43;;;15.40;92.80;;;;;;6260374;22;20173;-91
2022/06/14 03:25:31;;;;;;;4.60;1.60;;;15.30;93.10;;;;;;6280703;22;20145;-90
2022/06/14 03:28:06;;;;;;;3.10;1.50;;;15.20;93.20;;;;;;6280800;22;20153;-91
2022/06/14 03:30:37;;;;;;;6.10;1.77;;;15.20;93.40;;;;;;6280951;22;20167;-90
2022/06/14 03:33:22;;;;;;;4.87;1.50;;;15.20;93.50;;;;;;6280585;22;20223;-91
2022/06/14 03:35:50;;;;;;;3.97;1.67;;;15.20;93.60;;;;;;6280578;22;20590;-90
2022/06/14 03:38:20;;;;;;;3.80;1.40;;;15.20;93.90;;;;;;6281122;22;20149;-91
2022/06/14 03:40:46;;;;;;;6.03;1.67;;;15.20;93.70;;;;;;6307656;22;20137;-92
2022/06/14 03:43:13;;;;;;;2.93;1.60;;;15.30;93.50;;;;;;6281261;22;20157;-90
2022/06/14 03:46:16;;;;;;;5.67;1.43;;;15.40;93.50;;;;;;6280830;22;20225;-91
2022/06/14 03:48:46;;;;;;;3.57;1.60;;;15.20;93.70;;;;;;6280845;22;20168;-88
2022/06/14 03:51:33;;;;;;;5.10;1.47;;;15.20;93.90;;;;;;6281244;22;20150;-91
2022/06/14 03:54:16;;;;;;;3.00;1.60;;;15.20;93.70;;;;;;6280742;22;20185;-91
2022/06/14 03:57:00;;;;;;;7.43;1.70;;;15.30;93.50;;;;;;6279791;22;20210;-91
2022/06/14 03:59:26;;;;;;;4.73;1.73;;;15.50;93.00;;;;;;6281161;22;20488;-90
2022/06/14 04:02:53;;;;;;;4.43;1.50;;;15.50;93.10;;;;;;6280093;22;20163;-90
2022/06/14 04:05:43;;;;;;;8.50;1.73;;;15.60;92.70;;;;;;6307248;22;20153;-91
2022/06/14 04:09:00;;;;;;;6.00;1.73;;;15.50;92.70;;;;;;6280401;22;20457;-91
2022/06/14 04:11:44;;;;;;;7.33;1.87;;;15.40;93.00;;;;;;6213811;22;20188;-92
2022/06/14 04:14:26;;;;;;;4.67;1.93;;;15.40;93.70;;;;;;6307837;22;20175;-91
2022/06/14 04:17:01;;;;;;;7.63;1.83;;;15.40;93.70;;;;;;6280720;22;20181;-91
2022/06/14 04:19:51;;;;;;;3.80;1.37;;;15.60;93.30;;;;;;6280594;22;20227;-91
2022/06/14 04:22:35;;;;;;;5.97;2.00;;;15.90;92.60;;;;;;6280543;22;20496;-92
2022/06/14 04:25:09;;;;;;;8.20;1.87;;;16.00;92.30;;;;;;6307634;22;20148;-91
2022/06/14 04:27:59;;;;;;;5.13;1.60;;;16.00;92.20;;;;;;6307082;22;20160;-90
2022/06/14 04:30:39;;;;;;;5.63;1.77;;;16.10;92.20;;;;;;6280513;22;20144;-91
2022/06/14 04:33:40;;;;;;;5.77;1.87;;;16.00;92.40;;;;;;6280439;22;20211;-91
2022/06/14 04:36:12;;;;;;;9.13;2.30;;;16.00;92.50;;;;;;6281974;22;20170;-91
2022/06/14 04:38:53;;;;;;;3.70;2.10;;;15.90;92.60;;;;;;6306722;22;20217;-90
2022/06/14 04:41:36;;;;;;;3.10;1.90;;;16.20;92.20;;;;;;6307923;22;20217;-91
2022/06/14 04:44:12;;;;;;;5.07;1.87;;;16.30;92.00;;;;;;6307347;22;20136;-91
2022/06/14 04:46:46;;;;;;;6.90;2.03;;;16.20;92.10;;;;;;6280339;22;20572;-89
2022/06/14 04:49:26;;;;;;;5.27;2.40;;;16.20;92.20;;;;;;6307550;22;20172;-89
2022/06/14 04:52:01;;;;;;;5.00;2.10;;;16.20;92.10;;;;;;6307800;22;20199;-90
2022/06/14 04:54:40;;;;;;;8.50;2.47;;;16.20;92.30;;;;;;6306584;22;20255;-89
2022/06/14 04:57:27;;;;;;;5.90;2.37;;;16.20;92.00;;;;;;6280190;22;20192;-89
2022/06/14 05:00:15;;;;;;;8.17;2.60;;;16.30;92.00;;;;;;6279492;22;20203;-87
2022/06/14 05:02:43;;;;;;;7.97;2.80;;;16.40;91.80;;;;;;6279402;22;20588;-90
2022/06/14 05:05:29;;;;;;;7.47;2.73;;;16.40;91.90;;;;;;6280556;22;20150;-90
2022/06/14 05:08:07;;;;;;;8.07;2.93;;;16.40;92.00;;;;;;6307350;22;20163;-91
2022/06/14 05:10:46;;;;;;;9.07;3.27;;;16.40;92.10;;;;;;6307520;22;20134;-89
2022/06/14 05:13:18;;;;;;;7.30;3.13;;;16.50;92.10;;;;;;6306960;22;20152;-87
2022/06/14 05:15:49;;;;;;;6.83;3.43;;;16.40;91.80;;;;;;6280475;22;20157;-91
2022/06/14 05:18:39;;;;;;;7.83;3.07;;;16.70;91.50;;;;;;6280079;22;20489;-91
2022/06/14 05:21:27;;;;;;;12.37;3.20;;;16.70;91.50;;;;;;6280678;22;20146;-91
2022/06/14 05:23:56;;;;;;;7.13;3.13;;;16.70;91.50;;;;;;6281383;22;20158;-90
2022/06/14 05:26:21;;;;;;;10.17;3.47;;;16.80;91.30;;;;;;6281845;22;20145;-91
2022/06/14 05:28:55;;;;;;;7.93;2.80;;;16.70;91.30;;;;;;6282174;22;20203;-91
2022/06/14 05:31:56;;;;;;;7.57;2.87;;;16.70;91.60;;;;;;6281520;22;20632;-91
2022/06/14 05:34:42;;;;;;;9.67;2.60;;;17.00;91.00;;;;;;6216652;22;20193;-90
2022/06/14 05:37:18;;;;;;;8.37;2.47;;;17.00;90.90;;;;;;6282066;22;20176;-91
2022/06/14 05:39:47;;;;;;;6.50;2.30;;;17.00;91.10;;;;;;6282140;22;20146;-92
2022/06/14 05:42:21;;;;;;;9.87;2.60;;;17.00;91.10;;;;;;6309307;22;20213;-92
2022/06/14 05:44:51;;;;;;;6.53;2.60;;;17.10;90.90;;;;;;6281809;22;20579;-92
2022/06/14 06:01:06;;;;;;;7.63;1.60;;;17.40;89.60;;;;;;6208822;22;20209;-87
2022/06/14 06:03:48;;;;;;;7.57;2.43;;;17.50;89.70;;;;;;6245433;23;20151;-87
2022/06/14 06:06:32;;;;;;;5.20;1.67;;;17.60;89.20;;;;;;6245731;23;20142;-87
2022/06/14 06:09:08;;;;;;;5.37;1.90;;;17.50;89.20;;;;;;6245580;23;20178;-87
2022/06/14 06:11:46;;;;;;;5.53;1.80;;;17.50;89.00;;;;;;6244716;23;20528;-85
2022/06/14 06:14:23;;;;;;;8.97;1.93;;;17.20;90.00;;;;;;6244862;23;20258;-84
2022/06/14 06:17:02;;;;;;;8.80;2.00;;;17.30;90.00;;;;;;6244684;23;20595;-86
2022/06/14 06:19:38;;;;;;;6.43;1.60;;;17.70;88.40;;;;;;6245709;23;20170;-87
2022/06/14 06:22:17;;;;;;;8.17;1.90;;;17.90;87.90;;;;;;6245343;23;20176;-87
2022/06/14 06:24:53;;;;;;;4.53;1.80;;;17.90;88.60;;;;;;6245536;23;20148;-87
2022/06/14 06:27:25;;;;;;;9.67;1.83;;;17.90;88.30;;;;;;6245514;23;20151;-86
2022/06/14 06:30:04;;;;;;;4.93;1.97;;;18.00;87.60;;;;;;6245255;23;20143;-88
2022/06/14 06:32:34;;;;;;;3.93;1.83;;;18.10;86.70;;;;;;6245364;22;20171;-87
2022/06/14 06:35:02;;;;;;;8.83;1.83;;;18.10;85.60;;;;;;6242280;23;20175;-87
2022/06/14 06:37:45;;;;;;;3.80;1.50;;;18.10;85.60;;;;;;6243628;23;20649;-86
2022/06/14 06:40:19;;;;;;;7.20;1.80;;;18.10;87.00;;;;;;6244979;23;20243;-86
2022/06/14 06:42:58;;;;;;;4.50;1.60;;;18.20;86.90;;;;;;6245178;23;20539;-87
2022/06/14 06:45:29;;;;;;;4.67;1.50;;;18.30;86.00;;;;;;6244057;23;20146;-85
2022/06/14 06:48:00;;;;;;;6.20;1.80;;;18.30;84.80;;;;;;6243689;23;20190;-84
2022/06/14 06:50:42;;;;;;;5.83;1.50;;;18.30;84.50;;;;;;6244270;23;20148;-84
2022/06/14 06:53:11;;;;;;;7.10;1.67;;;18.40;83.10;;;;;;6244589;23;20596;-85
2022/06/14 06:55:45;;;;;;;2.90;1.57;;;18.30;83.60;;;;;;6244844;23;20222;-86
2022/06/14 06:58:32;;;;;;;3.87;1.50;;;18.50;83.40;;;;;;6243510;23;20153;-86
2022/06/14 07:01:19;;;;;;;6.17;1.50;;;18.60;83.30;;;;;;6245160;23;20281;-95
2022/06/14 07:03:58;;;;;;;4.97;1.53;;;18.50;83.30;;;;;;6245914;23;20167;-88
2022/06/14 07:06:49;;;;;;;5.73;1.30;;;18.50;82.70;;;;;;6244330;23;20139;-88
2022/06/14 07:09:20;;;;;;;8.23;1.63;;;18.60;82.00;;;;;;6244131;23;20512;-88
2022/06/14 07:11:55;;;;;;;6.37;1.77;;;18.60;82.10;;;;;;6244850;23;20192;-87
2022/06/14 07:14:30;;;;;;;3.90;1.20;;;18.60;82.20;;;;;;6244767;23;20186;-88
2022/06/14 07:17:09;;;;;;;5.93;1.13;;;18.80;80.00;;;;;;6244671;23;20154;-88
2022/06/14 07:20:05;;;;;;;3.87;1.03;;;18.80;80.60;;;;;;6243523;23;20136;-87
2022/06/14 07:22:38;;;;;;;5.10;1.30;;;19.10;80.60;;;;;;6242739;23;20156;-87
2022/06/14 07:25:08;;;;;;;3.07;1.30;;;19.10;80.50;;;;;;6244636;23;20140;-87
2022/06/14 07:28:06;;;;;;;9.07;1.53;;;19.10;81.50;;;;;;6244905;23;20152;-88
2022/06/14 07:30:37;;;;;;;3.93;1.57;;;19.30;78.80;;;;;;6243789;22;20162;-87
2022/06/14 07:33:04;;;;;;;4.53;1.33;;;19.60;77.10;;;;;;6244517;23;20170;-88
2022/06/14 07:35:36;;;;;;;4.57;1.40;;;19.40;77.70;;;;;;6244687;23;20190;-87
2022/06/14 07:38:28;;;;;;;3.57;1.20;;;19.50;78.00;;;;;;6244569;23;20148;-87
2022/06/14 07:41:20;;;;;;;5.73;1.40;;;19.50;78.00;;;;;;6243517;23;20153;-88
2022/06/14 07:43:59;;;;;;;5.93;1.17;;;19.40;78.30;;;;;;6235959;23;20167;-87
2022/06/14 07:46:50;;;;;;;4.73;1.57;;;19.40;79.00;;;;;;6244511;23;20195;-88
2022/06/14 07:49:29;;;;;;;4.57;2.00;;;19.40;80.40;;;;;;6244434;23;20157;-88
2022/06/14 07:52:04;;;;;;;7.60;1.63;;;19.40;80.70;;;;;;6243498;23;20152;-87
2022/06/14 07:54:38;;;;;;;6.10;1.23;;;19.60;80.80;;;;;;6244497;23;20619;-88
2022/06/14 07:57:16;;;;;;;5.33;2.23;;;19.70;79.70;;;;;;6244279;23;20147;-88
2022/06/14 07:59:57;;;;;;;3.53;1.43;;;19.60;79.30;;;;;;6244729;23;20158;-88
2022/06/14 08:02:37;;;;;;;9.23;1.80;;;19.50;80.00;;;;;;6244003;23;20589;-88
2022/06/14 08:05:13;;;;;;;4.03;1.43;;;19.30;80.40;;;;;;6244426;23;20583;-87
2022/06/14 08:07:40;;;;;;;5.73;1.73;;;19.50;81.10;;;;;;6244507;23;20648;-85
2022/06/14 08:10:12;;;;;;;3.17;1.10;;;19.50;81.20;;;;;;6244363;23;20228;-88
2022/06/14 08:13:03;;;;;;;4.73;1.80;;;19.50;81.40;;;;;;6243433;23;20515;-88
2022/06/14 08:15:35;;;;;;;3.33;1.47;;;19.80;81.70;;;;;;6244529;23;20247;-88
2022/06/14 08:18:09;;;;;;;4.17;1.27;;;19.90;80.40;;;;;;6243705;23;20557;-87
2022/06/14 08:21:29;;;;;;;6.33;2.07;;;19.90;80.50;;;;;;6244941;23;20586;-87
2022/06/14 08:24:03;;;;;;;4.57;1.47;;;20.10;78.80;;;;;;6186882;23;20160;-87
2022/06/14 08:26:39;;;;;;;2.33;1.03;;;20.00;80.10;;;;;;6242926;23;20159;-87
2022/06/14 08:29:27;;;;;;;4.33;1.60;;;20.10;80.20;;;;;;6244226;23;20156;-88
2022/06/14 08:32:06;;;;;;;9.40;1.57;;;20.10;80.40;;;;;;6244392;22;20233;-87
2022/06/14 08:34:40;;;;;;;5.47;1.50;;;20.00;80.20;;;;;;6243651;23;20192;-87
2022/06/14 08:37:16;;;;;;;5.00;1.63;;;19.90;81.20;;;;;;6243794;23;20582;-87
2022/06/14 08:39:51;;;;;;;6.17;1.67;;;19.90;81.00;;;;;;6244697;23;20156;-87
2022/06/14 08:42:48;;;;;;;6.00;1.50;;;20.00;81.60;;;;;;6244426;23;20145;-87
2022/06/14 08:45:38;;;;;;;6.30;1.30;;;20.10;79.40;;;;;;6242895;23;20158;-87
2022/06/14 08:48:07;;;;;;;4.47;1.30;;;20.20;79.60;;;;;;6243975;23;20217;-87
2022/06/14 08:50:35;;;;;;;4.20;1.37;;;20.30;80.00;;;;;;6244474;23;20149;-88
2022/06/14 08:53:10;;;;;;;3.57;1.30;;;20.30;79.90;;;;;;6244182;23;20158;-88
2022/06/14 08:55:41;;;;;;;5.63;1.37;;;20.40;80.50;;;;;;6243253;23;20169;-87
2022/06/14 08:58:22;;;;;;;3.00;1.00;;;20.40;79.00;;;;;;6246274;23;20181;-87
2022/06/14 09:01:09;;;;;;;4.23;1.30;;;20.50;78.80;;;;;;6245789;23;20187;-88
2022/06/14 09:04:07;;;;;;;4.23;1.20;;;20.50;78.20;;;;;;6246177;23;20158;-86
2022/06/14 09:06:49;;;;;;;4.83;1.63;;;20.40;79.50;;;;;;6211297;23;20158;-87
2022/06/14 09:09:34;;;;;;;3.90;1.50;;;20.50;78.20;;;;;;6246116;23;20150;-87
2022/06/14 09:12:02;;;;;;;5.47;1.30;;;20.50;79.70;;;;;;6246100;23;20176;-88
2022/06/14 09:15:03;;;;;;;5.37;1.47;;;20.70;78.40;;;;;;6245865;23;20186;-89
2022/06/14 09:18:08;;;;;;;6.30;1.10;;;20.70;79.20;;;;;;6245169;23;20493;-88
2022/06/14 09:20:40;;;;;;;3.80;1.20;;;20.70;78.50;;;;;;6245902;23;20154;-88
2022/06/14 09:23:46;;;;;;;7.10;1.47;;;20.60;80.20;;;;;;6245943;23;20149;-89
2022/06/14 09:26:26;;;;;;;3.27;1.20;;;20.70;80.00;;;;;;6245196;23;20549;-88
2022/06/14 09:29:11;;;;;;;3.30;1.30;;;20.80;80.40;;;;;;6245546;23;20233;-87
2022/06/14 09:31:51;;;;;;;3.13;1.40;;;20.80;79.80;;;;;;6246085;22;20209;-87
2022/06/14 09:34:38;;;;;;;4.83;1.40;;;20.80;79.50;;;;;;6246346;23;20185;-88
2022/06/14 09:37:29;;;;;;;3.90;1.20;;;20.80;79.90;;;;;;6244755;23;20154;-88
2022/06/14 09:40:03;;;;;;;5.87;1.60;;;20.80;78.80;;;;;;6246324;23;20484;-88
2022/06/14 09:43:11;;;;;;;4.20;1.30;;;20.80;79.00;;;;;;6245810;23;20149;-88
2022/06/14 09:45:57;;;;;;;2.37;1.00;;;20.70;79.00;;;;;;6212501;23;20157;-88
2022/06/14 09:48:42;;;;;;;3.20;1.30;;;20.60;79.50;;;;;;6245072;23;20693;-88
2022/06/14 09:51:25;;;;;;;3.37;1.23;;;20.60;81.30;;;;;;6246532;23;20143;-88
2022/06/14 09:54:13;;;;;;;2.90;0.93;;;20.70;79.20;;;;;;6246090;23;20181;-88
2022/06/14 09:56:51;;;;;;;4.23;1.13;;;20.80;78.20;;;;;;6246121;23;20158;-88
2022/06/14 09:59:37;;;;;;;4.00;1.30;;;20.80;78.80;;;;;;6245089;23;20154;-88
2022/06/14 10:02:28;;;;;;;4.17;1.37;;;20.80;78.70;;;;;;6245997;23;20167;-88
2022/06/14 10:05:15;;;;;;;3.07;1.10;;;20.90;78.10;;;;;;6246034;23;20197;-87
2022/06/14 10:07:55;;;;;;;3.07;1.20;;;20.90;78.00;;;;;;6246652;23;20144;-89
2022/06/14 10:10:41;;;;;;;8.00;1.33;;;20.90;78.50;;;;;;6244947;23;20236;-89
2022/06/14 10:13:44;;;;;;;2.03;1.30;;;21.00;79.80;;;;;;6245543;23;20151;-88
2022/06/14 10:16:34;;;;;;;2.77;1.40;;;21.00;78.90;;;;;;6245341;23;20190;-88
2022/06/14 10:19:08;;;;;;;3.23;0.90;;;21.10;77.40;;;;;;6245662;23;20150;-88
2022/06/14 10:21:42;;;;;;;3.40;1.40;;;21.20;76.00;;;;;;6245967;23;20534;-88
2022/06/14 10:24:39;;;;;;;3.50;1.23;;;21.30;75.20;;;;;;6246071;23;20192;-88
2022/06/14 10:30:26;;;;;;;7.47;2.57;;;21.10;77.80;;;;;;6245959;22;20169;-87
2022/06/14 10:33:04;;;;;;;5.83;1.67;;;21.10;79.40;;;;;;6245510;23;20158;-88
2022/06/14 10:35:53;;;;;;;4.87;1.60;;;21.10;79.00;;;;;;6244883;23;20185;-88
2022/06/14 10:38:19;;;;;;;3.27;1.37;;;21.30;78.80;;;;;;6245571;23;20166;-88
2022/06/14 10:40:53;;;;;;;4.43;1.47;;;21.20;78.10;;;;;;6244423;23;20218;-86
2022/06/14 10:43:36;;;;;;;4.00;1.30;;;21.20;78.60;;;;;;6245582;23;20161;-88
2022/06/14 10:46:27;;;;;;;2.37;1.37;;;21.10;79.90;;;;;;6245654;23;20287;-89
2022/06/14 10:49:39;;;;;;;3.43;1.40;;;21.30;78.30;;;;;;6244595;23;20482;-89
2022/06/14 10:52:35;;;;;;;4.30;1.60;;;21.40;77.40;;;;;;6244223;23;20242;-89
2022/06/14 10:55:07;;;;;;;2.13;1.33;;;21.40;77.50;;;;;;6244915;23;20186;-89
2022/06/14 10:58:22;;;;;;;7.43;1.47;;;21.50;77.20;;;;;;6245229;23;20174;-89
2022/06/14 11:01:17;;;;;;;4.40;1.40;;;21.50;78.80;;;;;;6199417;23;20757;-89
2022/06/14 11:03:58;;;;;;;3.60;1.23;;;21.60;78.00;;;;;;6244419;23;20159;-89
2022/06/14 11:06:35;;;;;;;3.10;1.37;;;21.70;77.10;;;;;;6245125;23;20181;-89
2022/06/14 11:09:06;;;;;;;4.53;1.73;;;21.80;75.90;;;;;;6245121;23;20158;-89
2022/06/14 11:11:45;;;;;;;5.40;1.80;;;21.80;76.60;;;;;;6245239;23;20147;-89
2022/06/14 11:14:46;;;;;;;2.07;1.20;;;21.90;76.20;;;;;;6244385;23;20174;-89
2022/06/14 11:17:32;;;;;;;1.87;1.10;;;21.90;76.20;;;;;;6245092;23;20154;-88
2022/06/14 11:20:03;;;;;;;4.23;1.37;;;22.00;74.70;;;;;;6247434;23;20259;-89
2022/06/14 11:22:40;;;;;;;6.27;1.60;;;22.10;75.30;;;;;;6248059;23;20146;-90
2022/06/14 11:25:34;;;;;;;3.50;1.00;;;22.20;74.30;;;;;;6243935;23;20576;-89
2022/06/14 11:28:25;;;;;;;4.93;1.20;;;22.50;73.70;;;;;;6245632;23;20170;-89
2022/06/14 11:31:09;;;;;;;3.27;1.00;;;23.20;72.90;;;;;;6254428;22;20198;-89
2022/06/14 11:34:06;;;;;;;6.93;1.17;;;24.40;70.80;;;;;;6259690;23;20178;-89
2022/06/14 11:36:47;;;;;;;4.70;1.23;;;25.70;69.00;;;;;;6269239;22;20143;-87
2022/06/14 11:39:32;;;;;;;5.07;1.13;;;26.80;67.10;;;;;;6273256;22;20120;-89
2022/06/14 11:42:04;;;;;;;4.73;1.50;;;28.10;66.00;;;;;;6258171;22;20151;-90
2022/06/14 11:44:41;;;;;;;4.70;1.50;;;29.00;63.70;;;;;;6246141;23;20154;-90
2022/06/14 11:47:39;;;;;;;4.28;1.08;;;29.90;62.60;;;;;;6244200;23;20154;-90
2022/06/14 11:50:11;;;;;;;4.28;1.92;;;31.20;61.40;;;;;;6244835;23;20147;-90
2022/06/14 11:52:57;;;;;;;3.58;1.20;;;32.20;59.70;;;;;;6244766;23;20541;-90
2022/06/14 11:55:47;;;;;;;3.78;1.35;;;32.90;58.40;;;;;;6243992;23;20187;-89
2022/06/14 11:58:27;;;;;;;3.63;1.02;;;33.30;58.20;;;;;;6233427;23;20201;-91
2022/06/14 12:01:16;;;;;;;2.50;1.23;;;33.80;57.00;;;;;;6244646;23;20608;-90
2022/06/14 12:04:23;;;;;;;3.60;1.20;;;33.80;55.60;;;;;;6244661;23;20533;-91
2022/06/14 12:07:02;;;;;;;2.85;0.98;;;34.60;55.00;;;;;;6243724;23;20155;-91
2022/06/14 12:09:31;;;;;;;3.22;1.08;;;35.30;53.50;;;;;;6244615;23;20212;-92
2022/06/14 12:12:15;;;;;;;3.38;1.02;;;36.00;53.00;;;;;;6244744;23;20150;-92
2022/06/14 12:15:08;;;;;;;3.20;1.30;;;36.50;51.50;;;;;;6244434;23;20186;-91
2022/06/14 12:17:46;;;;;;;3.83;1.30;;;37.30;50.00;;;;;;6244129;23;20147;-91
2022/06/14 12:20:14;;;;;;;2.70;0.82;;;37.20;49.20;;;;;;6244618;23;20178;-92
2022/06/14 12:22:58;;;;;;;4.03;0.70;;;37.40;50.10;;;;;;6244114;23;20467;-92
2022/06/14 12:28:52;;;;;;;1.52;0.90;;;38.20;48.60;;;;;;6243903;23;20231;-92
2022/06/14 12:31:35;;;;;;;3.72;1.17;;;37.90;48.20;;;;;;6245879;22;20182;-92
2022/06/14 12:34:24;;;;;;;3.03;1.20;;;37.50;47.50;;;;;;6246204;23;20170;-91
2022/06/14 12:37:12;;;;;;;4.18;1.30;;;37.00;48.80;;;;;;6235320;23;20193;-92
2022/06/14 12:40:01;;;;;;;4.78;1.63;;;37.30;49.20;;;;;;6245599;23;20155;-92
2022/06/14 12:42:58;;;;;;;4.78;1.30;;;38.20;49.10;;;;;;6246259;23;20147;-92
2022/06/14 12:45:28;;;;;;;2.40;1.17;;;38.80;48.20;;;;;;6246287;23;20155;-91
2022/06/14 12:48:28;;;;;;;4.13;1.23;;;39.30;48.10;;;;;;6246968;23;20148;-92
2022/06/14 12:51:20;;;;;;;3.00;1.10;;;39.60;47.20;;;;;;6245317;23;20350;-90
2022/06/14 12:53:54;;;;;;;3.40;1.27;;;40.00;46.60;;;;;;6217941;23;20179;-91
2022/06/14 12:56:35;;;;;;;2.58;0.88;;;39.60;46.40;;;;;;6246293;23;20154;-92
2022/06/14 12:59:23;;;;;;;5.78;1.10;;;40.00;46.40;;;;;;6246228;23;20143;-92
2022/06/14 13:02:00;;;;;;;3.60;1.20;;;40.10;46.90;;;;;;6245832;23;20167;-92
2022/06/14 13:04:45;;;;;;;4.18;1.05;;;40.10;46.80;;;;;;6246266;23;20230;-92
2022/06/14 13:07:23;;;;;;;2.58;1.00;;;40.20;46.10;;;;;;6245956;23;20221;-92
2022/06/14 13:09:55;;;;;;;5.28;1.10;;;41.20;45.20;;;;;;6246094;23;20213;-93
2022/06/14 13:12:51;;;;;;;4.25;1.30;;;40.90;45.90;;;;;;6245480;23;20174;-93
2022/06/14 13:15:25;;;;;;;5.00;1.35;;;41.20;45.50;;;;;;6246331;23;20201;-92
2022/06/14 13:18:00;;;;;;;3.28;1.20;;;41.30;44.80;;;;;;6246207;23;20191;-92
2022/06/14 13:20:36;;;;;;;2.92;1.25;;;41.70;44.80;;;;;;6247033;23;20150;-92
2022/06/14 13:23:48;;;;;;;4.32;1.00;;;41.60;44.60;;;;;;6245638;23;20479;-92
2022/06/14 13:26:42;;;;;;;4.80;1.17;;;41.60;43.80;;;;;;6220593;23;20158;-91
2022/06/14 13:29:30;;;;;;;1.88;0.82;;;41.50;44.30;;;;;;6245941;23;20163;-88
2022/06/14 13:32:06;;;;;;;3.78;1.35;;;41.60;44.40;;;;;;6245652;22;20183;-91
2022/06/14 13:34:55;;;;;;;3.40;1.00;;;41.90;44.70;;;;;;6246161;23;20612;-92
2022/06/14 13:37:30;;;;;;;4.00;1.20;;;41.90;44.10;;;;;;6246357;23;20515;-92
2022/06/14 13:40:25;;;;;;;4.63;1.20;;;41.90;43.90;;;;;;6245898;23;20146;-92
2022/06/14 13:43:11;;;;;;;3.15;1.25;;;41.80;43.50;;;;;;6242475;23;20241;-90
2022/06/14 13:45:48;;;;;;;2.92;1.15;;;41.30;43.30;;;;;;6245690;23;20173;-92
2022/06/14 13:48:27;;;;;;;3.22;1.17;;;40.60;43.80;;;;;;6245909;23;20146;-92
2022/06/14 13:51:13;;;;;;;2.65;0.88;;;40.40;44.60;;;;;;6245489;23;20522;-92
2022/06/14 13:54:04;;;;;;;4.45;1.13;;;40.30;44.30;;;;;;6245148;23;20143;-91
2022/06/14 13:56:56;;;;;;;3.42;1.10;;;41.00;43.60;;;;;;6246214;23;20166;-90
2022/06/14 13:59:26;;;;;;;3.80;1.33;;;41.40;43.60;;;;;;6217184;23;20212;-93
2022/06/14 14:01:57;;;;;;;3.85;1.48;;;42.00;43.10;;;;;;6245581;23;20178;-90
2022/06/14 14:04:48;;;;;;;3.50;1.42;;;42.50;42.60;;;;;;6244262;23;20247;-93
2022/06/14 14:07:19;;;;;;;3.35;1.10;;;42.40;42.20;;;;;;6245507;23;20187;-89
2022/06/14 14:10:07;;;;;;;3.10;0.98;;;42.80;42.30;;;;;;6245515;23;20230;-92
2022/06/14 14:13:04;;;;;;;2.90;1.13;;;43.00;42.70;;;;;;6245818;23;20432;-93
2022/06/14 14:15:45;;;;;;;2.38;1.15;;;43.20;42.90;;;;;;6244044;23;20278;-94